»·PEaware :: N900FT KBUR-KLAS

N900FT :: KBUR-KLAS

FLIGHT INFORMATION

Flight Status: Arrived
Operator: Privately registered:
United States
More flights under this callsign
Pilot: Anonymous 26404 (26404)
Aircraft: SOCATA TBM-900
(TBM9)
More flights by this aircraft type
Origin: KBUR Bob Hope-Burbank
United States
Destination: KLAS McCarran Intl
United States
More flights between these airports :: More routes between these airports
Route: VNY3 DAG CRESO4
File this flight plan on PilotEdge
Remarks: I-5 rating
Altitude:
(Current/Filed)
29,000ft
Speed:
(Current/Filed)
319kts
Departed: 21-May-20 03:57 PM
Arrived: 21-May-20 04:50 PM
Distance/Time
Traveled:
194nm/0:53
Distance/Time
To Go:
Arrived

Flight Plot

Page will automatically refresh every two minutes.


Map Options




Map Legend


Flown Route
Filed Route
Departure Airport
Arrival Airport
Navaid (VOR, NDB)
Fix

Horizontal Profiles

Position Reports

Time Latitude Longitude Heading Altitude Ground
Speed
21-May-20 15:31 34.200394 -118.362457 90 726ft 0kts
21-May-20 15:32 34.200394 -118.362457 90 726ft 0kts
21-May-20 15:33 34.200394 -118.362457 90 726ft 0kts
21-May-20 15:34 34.200394 -118.362457 90 726ft 0kts
21-May-20 15:35 34.200394 -118.362457 90 726ft 0kts
21-May-20 15:36 34.200394 -118.362457 90 726ft 0kts
21-May-20 15:37 34.200394 -118.362457 90 726ft 0kts
21-May-20 15:38 34.200394 -118.362457 90 726ft 0kts
21-May-20 15:39 34.200394 -118.362457 90 726ft 0kts
21-May-20 15:40 34.200394 -118.362457 90 726ft 0kts
21-May-20 15:41 34.200394 -118.362457 90 726ft 0kts
21-May-20 15:42 34.200394 -118.362457 90 726ft 0kts
21-May-20 15:43 34.200394 -118.362457 90 726ft 0kts
21-May-20 15:44 34.200394 -118.362457 90 726ft 0kts
21-May-20 15:45 34.200394 -118.362457 90 726ft 0kts
21-May-20 15:46 34.200394 -118.362457 90 726ft 0kts
21-May-20 15:47 34.200394 -118.362457 90 726ft 0kts
21-May-20 15:48 34.199768 -118.362029 170 724ft 8kts
21-May-20 15:49 34.198903 -118.359770 95 717ft 10kts
21-May-20 15:50 34.200193 -118.358257 347 719ft 15kts
21-May-20 15:51 34.201802 -118.358719 347 726ft 10kts
21-May-20 15:52 34.205690 -118.359773 349 740ft 15kts
21-May-20 15:53 34.209226 -118.360764 348 757ft 6kts
21-May-20 15:54 34.210998 -118.361109 44 766ft 0kts
21-May-20 15:55 34.210743 -118.360046 167 763ft 15kts
21-May-20 15:57 34.182524 -118.353616 184 2022ft 139kts
21-May-20 15:58 34.152514 -118.386844 225 4053ft 172kts
21-May-20 15:59 34.137064 -118.442856 324 4236ft 206kts
21-May-20 16:00 34.186601 -118.455637 352 6835ft 173kts
21-May-20 16:01 34.235348 -118.466042 352 9138ft 179kts
21-May-20 16:02 34.280412 -118.455968 32 11240ft 180kts
21-May-20 16:03 34.325391 -118.425022 31 13042ft 194kts
21-May-20 16:04 34.376668 -118.390480 31 14772ft 188kts
21-May-20 16:05 34.421963 -118.359934 30 17061ft 185kts
21-May-20 16:06 34.466358 -118.327382 49 19327ft 187kts
21-May-20 16:07 34.498957 -118.275692 47 21244ft 194kts
21-May-20 16:08 34.532686 -118.221849 45 23274ft 202kts
21-May-20 16:09 34.567866 -118.165601 43 25007ft 212kts
21-May-20 16:10 34.605194 -118.105810 42 26520ft 223kts
21-May-20 16:11 34.634932 -118.033162 73 28259ft 262kts
21-May-20 16:12 34.645243 -117.938312 74 29060ft 305kts
21-May-20 16:13 34.657182 -117.828159 75 29036ft 337kts
21-May-20 16:13 34.672010 -117.733114 64 29043ft 339kts
21-May-20 16:15 34.705562 -117.602154 64 29054ft 343kts
21-May-20 16:15 34.729652 -117.507823 64 29038ft 345kts
21-May-20 16:16 34.758660 -117.393784 64 29038ft 345kts
21-May-20 16:18 34.792156 -117.261486 65 29025ft 345kts
21-May-20 16:18 34.815292 -117.169708 65 29013ft 345kts
21-May-20 16:19 34.844350 -117.056056 72 28974ft 349kts
21-May-20 16:20 34.873594 -116.936705 72 28997ft 367kts
21-May-20 16:21 34.904110 -116.814213 70 28994ft 373kts
21-May-20 16:22 34.934831 -116.690208 69 28834ft 381kts
21-May-20 16:23 34.969444 -116.562072 57 27174ft 398kts
21-May-20 16:24 35.023464 -116.440947 56 24766ft 398kts
21-May-20 16:25 35.075371 -116.323841 57 22593ft 376kts
21-May-20 16:26 35.123162 -116.215623 57 20996ft 359kts
21-May-20 16:27 35.170575 -116.107933 58 19403ft 351kts
21-May-20 16:28 35.216712 -116.002793 58 17848ft 339kts
21-May-20 16:29 35.261063 -115.901423 59 16347ft 329kts
21-May-20 16:30 35.304340 -115.802213 59 14881ft 321kts
21-May-20 16:31 35.360908 -115.720176 45 13466ft 306kts
21-May-20 16:32 35.418775 -115.642999 46 12102ft 301kts
21-May-20 16:33 35.474943 -115.567837 46 10774ft 287kts
21-May-20 16:34 35.528513 -115.496046 46 10051ft 267kts
21-May-20 16:35 35.578655 -115.428735 46 10054ft 262kts
21-May-20 16:36 35.628715 -115.361413 46 10055ft 262kts
21-May-20 16:37 35.678030 -115.294962 47 10054ft 262kts
21-May-20 16:38 35.740271 -115.245007 21 9037ft 283kts
21-May-20 16:39 35.815655 -115.207842 21 6995ft 277kts
21-May-20 16:40 35.885023 -115.173782 21 6045ft 240kts
21-May-20 16:41 35.946246 -115.143495 21 6044ft 225kts
21-May-20 16:42 36.005462 -115.113987 21 6041ft 221kts
21-May-20 16:43 36.048632 -115.092413 21 5705ft 125kts
21-May-20 16:44 36.080934 -115.077976 19 3741ft 117kts
21-May-20 16:45 36.108214 -115.080542 292 3505ft 110kts
21-May-20 16:46 36.122087 -115.115729 299 3405ft 115kts
21-May-20 16:47 36.115802 -115.146990 210 2559ft 105kts
21-May-20 16:48 36.091919 -115.160805 207 2112ft 61kts
21-May-20 16:49 36.089378 -115.163476 293 2128ft 0kts
21-May-20 16:50 36.089379 -115.163477 293 2128ft 0kts
21-May-20 16:51 36.092830 -115.162733 22 2116ft 21kts
21-May-20 16:52 36.094806 -115.162349 12 2109ft 0kts
21-May-20 16:53 36.094806 -115.162349 12 2109ft 0kts
21-May-20 16:54 36.094806 -115.162349 12 2109ft 0kts
21-May-20 16:55 36.094806 -115.162349 12 2109ft 0kts

Navigation Log

Ident Type
Flight plan parsing failed, navigation log unavailable